createdAt,value
2023-04-19T00:00:08.610Z,7.35
2023-04-19T00:02:36.726Z,7.32
2023-04-19T00:05:07.136Z,7.40
2023-04-19T00:07:35.484Z,7.43
2023-04-19T00:10:03.453Z,7.40
2023-04-19T00:12:31.260Z,7.44
2023-04-19T00:14:59.176Z,7.27
2023-04-19T00:17:27.641Z,7.20
2023-04-19T00:19:56.863Z,7.23
2023-04-19T00:22:26.236Z,7.33
2023-04-19T00:24:54.356Z,7.28
2023-04-19T00:27:22.168Z,7.24
2023-04-19T00:29:50.307Z,7.13
2023-04-19T00:32:18.432Z,7.08
2023-04-19T00:34:47.253Z,7.09
2023-04-19T00:37:15.143Z,7.06
2023-04-19T00:39:44.563Z,6.99
2023-04-19T00:42:12.465Z,6.87
2023-04-19T00:44:40.359Z,6.93
2023-04-19T00:47:08.412Z,7.09
2023-04-19T00:49:36.511Z,6.96
2023-04-19T00:52:09.034Z,6.86
2023-04-19T00:54:38.164Z,7.06
2023-04-19T00:57:07.382Z,6.82
2023-04-19T00:59:36.192Z,6.74
2023-04-19T01:02:04.254Z,6.86
2023-04-19T01:04:32.929Z,6.83
2023-04-19T01:07:02.689Z,7.00
2023-04-19T01:09:31.021Z,6.93
2023-04-19T01:11:58.941Z,6.94
2023-04-19T01:14:29.513Z,6.95
2023-04-19T01:16:58.411Z,6.91
2023-04-19T01:19:26.943Z,6.87
2023-04-19T01:21:56.409Z,6.92
2023-04-19T01:24:25.904Z,6.98
2023-04-19T01:26:54.738Z,6.99
2023-04-19T01:29:22.806Z,6.97
2023-04-19T01:31:53.611Z,7.02
2023-04-19T01:34:23.178Z,6.84
2023-04-19T01:36:51.668Z,6.93
2023-04-19T01:39:19.648Z,6.98
2023-04-19T01:41:48.948Z,6.82
2023-04-19T01:44:17.208Z,6.74
2023-04-19T01:46:45.445Z,6.71
2023-04-19T01:49:13.370Z,6.81
2023-04-19T01:51:42.755Z,6.79
2023-04-19T01:54:10.745Z,6.94
2023-04-19T01:56:38.817Z,6.78
2023-04-19T01:59:08.252Z,6.79
2023-04-19T02:01:36.168Z,6.71
2023-04-19T02:04:04.889Z,6.78
2023-04-19T02:06:33.118Z,6.65
2023-04-19T02:09:02.285Z,6.68
2023-04-19T02:11:30.232Z,6.64
2023-04-19T02:13:58.269Z,6.54
2023-04-19T02:16:27.841Z,6.48
2023-04-19T02:18:56.264Z,6.66
2023-04-19T02:21:24.115Z,6.57
2023-04-19T02:23:52.073Z,6.61
2023-04-19T02:26:21.735Z,6.35
2023-04-19T02:28:51.579Z,6.35
2023-04-19T02:31:19.769Z,6.32
2023-04-19T02:33:49.172Z,6.42
2023-04-19T02:36:17.156Z,6.34
2023-04-19T02:38:45.262Z,6.40
2023-04-19T02:41:13.285Z,6.44
2023-04-19T02:43:41.367Z,6.33
2023-04-19T02:46:09.543Z,6.16
2023-04-19T02:48:37.478Z,6.11
2023-04-19T02:51:06.930Z,6.21
2023-04-19T02:53:35.913Z,6.23
2023-04-19T02:56:04.211Z,6.22
2023-04-19T02:58:32.212Z,6.08
2023-04-19T03:01:00.606Z,6.21
2023-04-19T03:03:31.002Z,6.07
2023-04-19T03:05:59.656Z,6.01
2023-04-19T03:08:29.467Z,6.06
2023-04-19T03:10:57.460Z,6.04
2023-04-19T03:13:25.944Z,6.10
2023-04-19T03:15:53.854Z,6.00
2023-04-19T03:18:21.838Z,6.01
2023-04-19T03:20:50.833Z,5.93
2023-04-19T03:23:19.051Z,5.80
2023-04-19T03:25:48.737Z,5.71
2023-04-19T03:28:17.991Z,5.69
2023-04-19T03:30:46.100Z,5.70
2023-04-19T03:33:15.294Z,5.61
2023-04-19T03:35:44.888Z,5.66
2023-04-19T03:38:12.857Z,5.64
2023-04-19T03:40:41.008Z,5.61
2023-04-19T03:43:10.573Z,5.54
2023-04-19T03:45:38.408Z,5.46
2023-04-19T03:48:07.015Z,5.49
2023-04-19T03:50:37.476Z,5.46
2023-04-19T03:53:05.696Z,5.41
2023-04-19T03:55:33.585Z,5.29
2023-04-19T03:58:01.436Z,5.41
2023-04-19T04:00:33.315Z,5.35
2023-04-19T04:03:01.446Z,5.38
2023-04-19T04:05:31.284Z,5.32
2023-04-19T04:08:00.366Z,5.41
2023-04-19T04:10:28.749Z,5.44
2023-04-19T04:12:57.648Z,5.34
2023-04-19T04:15:45.885Z,5.43
2023-04-19T04:18:13.825Z,5.32
2023-04-19T04:20:42.303Z,5.32
2023-04-19T04:23:43.051Z,5.22
2023-04-19T04:26:17.965Z,5.19
2023-04-19T04:29:14.739Z,5.10
2023-04-19T04:31:50.855Z,5.14
2023-04-19T04:34:20.914Z,5.25
2023-04-19T04:36:50.700Z,5.22
2023-04-19T04:39:19.668Z,5.19
2023-04-19T04:41:50.102Z,5.14
2023-04-19T04:44:18.169Z,5.10
2023-04-19T04:46:48.552Z,5.21
2023-04-19T04:49:16.501Z,5.19
2023-04-19T04:51:51.291Z,5.25
2023-04-19T04:54:22.187Z,5.19
2023-04-19T04:56:50.266Z,5.17
2023-04-19T04:59:18.281Z,5.13
2023-04-19T05:01:47.126Z,5.18
2023-04-19T05:04:16.858Z,5.18
2023-04-19T05:06:45.213Z,5.25
2023-04-19T05:09:13.321Z,5.15
2023-04-19T05:11:41.281Z,5.10
2023-04-19T05:14:09.270Z,5.23
2023-04-19T05:16:37.259Z,5.29
2023-04-19T05:19:12.700Z,5.34
2023-04-19T05:21:42.072Z,5.55
2023-04-19T05:24:10.835Z,5.69
2023-04-19T05:26:38.621Z,5.66
2023-04-19T05:29:09.802Z,5.80
2023-04-19T05:31:37.720Z,5.90
2023-04-19T05:34:05.797Z,5.95
2023-04-19T05:36:34.931Z,5.95
2023-04-19T05:39:05.041Z,6.07
2023-04-19T05:41:33.084Z,6.14
2023-04-19T05:44:01.105Z,6.15
2023-04-19T05:46:31.634Z,6.29
2023-04-19T05:49:00.007Z,6.61
2023-04-19T05:51:30.921Z,7.22
2023-04-19T05:54:01.604Z,7.67
2023-04-19T05:56:31.584Z,7.92
2023-04-19T05:59:14.740Z,8.26
2023-04-19T06:01:42.859Z,8.14
2023-04-19T06:04:11.408Z,8.05
2023-04-19T06:06:41.951Z,8.65
2023-04-19T06:09:09.897Z,8.76
2023-04-19T06:11:49.886Z,8.83
2023-04-19T06:14:19.462Z,8.69
2023-04-19T06:16:48.184Z,8.75
2023-04-19T06:19:17.606Z,8.88
2023-04-19T06:21:46.072Z,8.75
2023-04-19T06:24:14.391Z,9.02
2023-04-19T06:26:43.972Z,8.82
2023-04-19T06:29:12.825Z,9.05
2023-04-19T06:31:41.246Z,9.07
2023-04-19T06:34:10.358Z,9.70
2023-04-19T06:36:39.821Z,9.75
2023-04-19T06:39:08.074Z,9.65
2023-04-19T06:41:36.122Z,9.83
2023-04-19T06:44:05.536Z,10.16
2023-04-19T06:46:33.588Z,10.43
2023-04-19T06:49:02.861Z,10.43
2023-04-19T06:51:32.334Z,10.29
2023-04-19T06:54:01.530Z,9.78
2023-04-19T06:56:45.520Z,10.14
2023-04-19T06:59:20.346Z,10.51
2023-04-19T07:01:50.540Z,10.72
2023-04-19T07:07:12.319Z,10.57
2023-04-19T07:09:41.607Z,10.94
2023-04-19T07:12:10.955Z,11.22
2023-04-19T07:14:40.311Z,11.76
2023-04-19T07:17:08.265Z,11.73
2023-04-19T07:22:54.525Z,11.75
2023-04-19T07:25:22.481Z,11.38
2023-04-19T07:27:53.541Z,11.65
2023-04-19T07:30:22.977Z,11.74
2023-04-19T07:32:58.159Z,11.79
2023-04-19T07:35:31.349Z,11.59
2023-04-19T07:38:22.041Z,11.90
2023-04-19T07:40:50.956Z,11.98
2023-04-19T07:43:19.954Z,12.43
2023-04-19T07:45:49.124Z,12.60
2023-04-19T07:48:31.393Z,12.57
2023-04-19T07:51:11.724Z,12.45
2023-04-19T07:53:48.662Z,12.57
2023-04-19T07:56:35.780Z,12.98
2023-04-19T07:59:09.670Z,12.12
2023-04-19T08:01:41.120Z,12.31
2023-04-19T08:07:05.214Z,13.29
2023-04-19T08:09:39.827Z,13.00
2023-04-19T08:12:47.322Z,12.66
2023-04-19T08:21:40.568Z,12.90
2023-04-19T08:24:36.376Z,13.00
2023-04-19T08:27:04.396Z,13.40
2023-04-19T08:29:40.730Z,13.57
2023-04-19T08:32:09.750Z,13.87
2023-04-19T08:34:58.977Z,13.84
2023-04-19T08:37:29.710Z,13.55
2023-04-19T08:40:23.504Z,13.58
2023-04-19T08:43:19.392Z,14.29
2023-04-19T08:46:12.795Z,14.92
2023-04-19T08:49:10.868Z,15.09
2023-04-19T08:51:52.716Z,14.59
2023-04-19T08:54:23.189Z,14.10
2023-04-19T08:56:55.150Z,14.93
2023-04-19T08:59:26.386Z,14.42
2023-04-19T09:01:59.476Z,14.64
2023-04-19T09:07:24.300Z,14.46
2023-04-19T09:10:07.794Z,14.32
2023-04-19T09:12:40.172Z,15.11
2023-04-19T09:15:09.704Z,14.59
2023-04-19T09:17:47.299Z,14.84
2023-04-19T09:20:16.353Z,14.47
2023-04-19T09:23:13.022Z,14.97
2023-04-19T09:26:11.204Z,14.57
2023-04-19T09:28:31.001Z,15.06
2023-04-19T09:31:15.352Z,15.75
2023-04-19T09:33:54.435Z,15.45
2023-04-19T09:36:31.465Z,15.62
2023-04-19T09:39:07.616Z,15.31
2023-04-19T09:41:39.021Z,14.57
2023-04-19T09:44:35.934Z,15.18
2023-04-19T09:47:05.622Z,14.87
2023-04-19T09:49:46.064Z,14.88
2023-04-19T09:52:18.695Z,15.81
2023-04-19T09:54:48.906Z,15.93
2023-04-19T09:57:23.714Z,15.87
2023-04-19T09:59:55.244Z,16.46
2023-04-19T10:02:27.188Z,17.08
2023-04-19T10:05:19.034Z,16.63
2023-04-19T10:07:48.041Z,16.71
2023-04-19T10:10:21.522Z,16.10
2023-04-19T10:13:15.900Z,16.24
2023-04-19T10:15:52.664Z,16.26
2023-04-19T10:18:24.476Z,15.72
2023-04-19T10:20:56.565Z,15.65
2023-04-19T10:23:25.444Z,15.76
2023-04-19T10:26:00.633Z,16.03
2023-04-19T10:28:31.328Z,16.35
2023-04-19T10:31:02.939Z,16.42
2023-04-19T10:33:34.560Z,16.61
2023-04-19T10:36:03.077Z,16.83
2023-04-19T10:38:44.682Z,17.10
2023-04-19T10:41:17.392Z,16.95
2023-04-19T10:43:48.698Z,16.27
2023-04-19T10:46:40.166Z,16.46
2023-04-19T10:49:13.398Z,16.57
2023-04-19T10:51:44.543Z,16.62
2023-04-19T10:54:32.357Z,17.26
2023-04-19T10:57:06.307Z,17.26
2023-04-19T10:59:35.168Z,16.54
2023-04-19T11:02:05.798Z,16.92
2023-04-19T11:05:00.611Z,16.94
2023-04-19T11:07:29.365Z,17.30
2023-04-19T11:09:57.566Z,17.03
2023-04-19T11:12:29.129Z,17.14
2023-04-19T11:14:59.952Z,17.29
2023-04-19T11:17:32.192Z,17.06
2023-04-19T11:20:02.534Z,16.82
2023-04-19T11:22:40.026Z,17.59
2023-04-19T11:25:12.199Z,17.30
2023-04-19T11:27:45.463Z,16.52
2023-04-19T11:30:17.065Z,17.53
2023-04-19T11:32:48.971Z,17.47
2023-04-19T11:35:23.717Z,17.32
2023-04-19T11:37:53.050Z,18.40
2023-04-19T11:40:23.089Z,17.51
2023-04-19T11:42:57.247Z,16.73
2023-04-19T11:45:30.883Z,17.40
2023-04-19T11:48:00.698Z,17.10
2023-04-19T11:50:33.415Z,16.63
2023-04-19T11:53:05.771Z,17.39
2023-04-19T11:55:34.739Z,17.97
2023-04-19T11:58:04.343Z,17.68
2023-04-19T12:00:32.311Z,18.02
2023-04-19T12:03:01.827Z,17.94
2023-04-19T12:05:32.010Z,17.42
2023-04-19T12:08:01.990Z,16.88
2023-04-19T12:10:30.883Z,16.79
2023-04-19T12:13:01.189Z,17.62
2023-04-19T12:15:44.348Z,17.27
2023-04-19T12:18:12.782Z,17.97
2023-04-19T12:20:46.069Z,17.50
2023-04-19T12:23:16.911Z,18.61
2023-04-19T12:25:46.248Z,18.61
2023-04-19T12:28:15.148Z,18.01
2023-04-19T12:30:45.057Z,19.16
2023-04-19T12:33:13.097Z,17.56
2023-04-19T12:35:43.437Z,18.07
2023-04-19T12:38:14.052Z,18.19
2023-04-19T12:40:42.237Z,17.98
2023-04-19T12:43:12.795Z,18.94
2023-04-19T12:45:41.188Z,18.14
2023-04-19T12:48:13.266Z,17.61
2023-04-19T12:50:41.309Z,18.33
2023-04-19T12:53:13.947Z,18.29
2023-04-19T12:55:47.390Z,18.94
2023-04-19T12:58:15.881Z,17.03
2023-04-19T13:00:44.144Z,18.48
2023-04-19T13:03:16.584Z,18.50
2023-04-19T13:05:45.672Z,17.93
2023-04-19T13:08:15.067Z,18.43
2023-04-19T13:10:48.786Z,18.38
2023-04-19T13:13:32.816Z,18.72
2023-04-19T13:17:05.135Z,18.72
2023-04-19T13:19:34.717Z,18.97
2023-04-19T13:22:04.035Z,18.19
2023-04-19T13:24:32.277Z,18.65
2023-04-19T13:27:00.701Z,19.04
2023-04-19T13:29:29.378Z,18.63
2023-04-19T13:31:59.547Z,18.62
2023-04-19T13:34:31.778Z,18.66
2023-04-19T13:37:07.457Z,17.83
2023-04-19T13:39:42.038Z,17.40
2023-04-19T13:42:14.511Z,18.73
2023-04-19T13:44:53.676Z,17.73
2023-04-19T13:47:21.852Z,17.52
2023-04-19T13:49:52.723Z,17.91
2023-04-19T13:52:25.047Z,18.15
2023-04-19T13:54:54.654Z,17.93
2023-04-19T13:57:30.751Z,18.71
2023-04-19T14:00:02.651Z,18.94
2023-04-19T14:02:31.892Z,18.59
2023-04-19T14:05:07.175Z,18.93
2023-04-19T14:07:42.330Z,18.80
2023-04-19T14:10:19.475Z,18.00
2023-04-19T14:12:59.463Z,17.96
2023-04-19T14:15:29.978Z,17.97
2023-04-19T14:18:09.969Z,17.46
2023-04-19T14:20:44.747Z,18.28
2023-04-19T14:23:23.591Z,18.38
2023-04-19T14:26:04.567Z,18.34
2023-04-19T14:29:01.414Z,18.83
2023-04-19T14:31:42.735Z,18.37
2023-04-19T14:34:14.418Z,18.87
2023-04-19T14:36:51.583Z,19.11
2023-04-19T14:39:31.994Z,17.87
2023-04-19T14:42:05.418Z,17.09
2023-04-19T14:44:36.581Z,18.12
2023-04-19T14:47:04.804Z,17.99
2023-04-19T14:49:33.425Z,18.02
2023-04-19T14:52:04.004Z,18.33
2023-04-19T14:54:37.176Z,19.34
2023-04-19T14:57:07.791Z,17.29
2023-04-19T14:59:40.422Z,17.58
2023-04-19T15:02:13.719Z,17.06
2023-04-19T15:04:48.135Z,16.31
2023-04-19T15:07:16.280Z,16.09
2023-04-19T15:09:45.619Z,17.77
2023-04-19T15:12:13.899Z,18.33
2023-04-19T15:14:41.863Z,18.35
2023-04-19T15:17:09.806Z,17.71
2023-04-19T15:19:40.976Z,18.09
2023-04-19T15:22:09.036Z,16.42
2023-04-19T15:24:36.883Z,16.70
2023-04-19T15:27:06.149Z,16.09
2023-04-19T15:29:36.303Z,16.46
2023-04-19T15:32:04.704Z,16.67
2023-04-19T15:34:32.622Z,16.61
2023-04-19T15:37:01.732Z,17.14
2023-04-19T15:39:32.415Z,16.60
2023-04-19T15:42:00.568Z,16.75
2023-04-19T15:44:30.350Z,16.84
2023-04-19T15:47:01.098Z,16.89
2023-04-19T15:49:31.748Z,16.96
2023-04-19T15:52:00.682Z,17.33
2023-04-19T15:54:31.192Z,16.69
2023-04-19T15:56:59.251Z,16.19
2023-04-19T15:59:27.379Z,16.68
2023-04-19T16:02:00.594Z,16.90
2023-04-19T16:04:32.177Z,16.96
2023-04-19T16:07:03.883Z,16.48
2023-04-19T16:09:36.558Z,16.36
2023-04-19T16:12:13.152Z,16.17
2023-04-19T16:14:41.362Z,15.83
2023-04-19T16:17:11.221Z,16.75
2023-04-19T16:19:39.112Z,17.40
2023-04-19T16:22:08.882Z,16.88
2023-04-19T16:24:39.351Z,16.41
2023-04-19T16:27:07.747Z,16.67
2023-04-19T16:29:38.504Z,16.88
2023-04-19T16:32:18.142Z,16.70
2023-04-19T16:34:47.316Z,16.48
2023-04-19T16:37:18.103Z,16.38
2023-04-19T16:39:55.146Z,15.74
2023-04-19T16:42:24.505Z,16.03
2023-04-19T16:45:02.552Z,16.10
2023-04-19T16:47:32.081Z,15.99
2023-04-19T16:50:01.364Z,15.90
2023-04-19T16:52:32.726Z,15.66
2023-04-19T16:55:03.372Z,16.15
2023-04-19T16:57:31.640Z,15.62
2023-04-19T17:00:00.538Z,15.24
2023-04-19T17:02:49.108Z,15.68
2023-04-19T17:05:19.630Z,15.67
2023-04-19T17:07:47.797Z,15.08
2023-04-19T17:10:18.158Z,15.11
2023-04-19T17:12:46.309Z,15.11
2023-04-19T17:15:14.250Z,15.26
2023-04-19T17:17:42.903Z,15.09
2023-04-19T17:20:13.469Z,14.97
2023-04-19T17:22:41.437Z,14.43
2023-04-19T17:25:09.961Z,14.64
2023-04-19T17:27:39.044Z,14.43
2023-04-19T17:30:09.851Z,14.83
2023-04-19T17:32:48.565Z,14.49
2023-04-19T17:35:21.544Z,14.59
2023-04-19T17:37:57.528Z,14.47
2023-04-19T17:40:29.547Z,14.52
2023-04-19T17:42:58.454Z,14.23
2023-04-19T17:45:28.567Z,13.75
2023-04-19T17:47:56.644Z,13.55
2023-04-19T17:50:27.471Z,13.47
2023-04-19T17:52:59.650Z,13.28
2023-04-19T17:55:27.681Z,12.94
2023-04-19T17:57:58.030Z,12.39
2023-04-19T18:00:26.119Z,12.09
2023-04-19T18:02:54.456Z,11.98
2023-04-19T18:05:22.730Z,11.86
2023-04-19T18:07:52.187Z,11.83
2023-04-19T18:10:20.821Z,11.68
2023-04-19T18:12:49.066Z,11.61
2023-04-19T18:15:19.125Z,11.55
2023-04-19T18:17:47.248Z,11.51
2023-04-19T18:20:16.138Z,11.46
2023-04-19T18:22:43.982Z,11.37
2023-04-19T18:25:17.576Z,11.26
2023-04-19T18:27:45.889Z,11.20
2023-04-19T18:30:14.664Z,11.09
2023-04-19T18:32:42.594Z,11.08
2023-04-19T18:35:11.969Z,10.95
2023-04-19T18:37:40.149Z,10.86
2023-04-19T18:40:09.793Z,10.72
2023-04-19T18:42:39.470Z,10.68
2023-04-19T18:45:08.634Z,10.69
2023-04-19T18:47:36.612Z,10.68
2023-04-19T18:50:06.553Z,10.68
2023-04-19T18:52:36.524Z,10.55
2023-04-19T18:55:05.746Z,10.46
2023-04-19T18:57:35.297Z,10.34
2023-04-19T19:00:11.383Z,10.34
2023-04-19T19:02:41.392Z,10.29
2023-04-19T19:05:13.818Z,10.10
2023-04-19T19:07:42.236Z,9.96
2023-04-19T19:10:19.399Z,10.10
2023-04-19T19:12:50.207Z,9.81
2023-04-19T19:15:19.722Z,9.96
2023-04-19T19:17:50.430Z,10.07
2023-04-19T19:20:21.169Z,9.81
2023-04-19T19:22:49.352Z,9.71
2023-04-19T19:25:18.908Z,9.67
2023-04-19T19:28:05.495Z,9.80
2023-04-19T19:30:45.200Z,9.40
2023-04-19T19:33:16.900Z,9.45
2023-04-19T19:35:46.383Z,9.42
2023-04-19T19:38:17.502Z,9.35
2023-04-19T19:43:16.448Z,8.98
2023-04-19T19:45:45.970Z,8.79
2023-04-19T19:48:13.874Z,8.90
2023-04-19T19:53:14.894Z,8.90
2023-04-19T19:55:42.778Z,8.77
2023-04-19T19:58:39.273Z,8.44
2023-04-19T20:01:02.259Z,8.26
2023-04-19T20:03:37.273Z,7.90
2023-04-19T20:08:42.654Z,7.71
2023-04-19T20:11:12.330Z,8.10
2023-04-19T20:13:45.775Z,7.81
2023-04-19T20:16:18.289Z,7.81
2023-04-19T20:18:49.084Z,7.88
2023-04-19T20:21:19.687Z,7.77
2023-04-19T20:23:50.957Z,7.79
2023-04-19T20:26:18.975Z,7.76
2023-04-19T20:28:46.809Z,7.59
2023-04-19T20:31:16.327Z,7.71
2023-04-19T20:33:46.906Z,7.78
2023-04-19T20:36:16.480Z,7.69
2023-04-19T20:38:44.985Z,7.62
2023-04-19T20:41:13.104Z,7.45
2023-04-19T20:43:42.476Z,7.42
2023-04-19T20:46:11.211Z,7.16
2023-04-19T20:48:40.975Z,7.11
2023-04-19T20:51:08.982Z,7.00
2023-04-19T20:53:37.266Z,6.91
2023-04-19T20:56:05.975Z,6.91
2023-04-19T20:58:34.759Z,6.95
2023-04-19T21:01:02.674Z,6.91
2023-04-19T21:03:31.101Z,6.65
2023-04-19T21:06:00.805Z,6.78
2023-04-19T21:08:28.672Z,6.69
2023-04-19T21:10:56.675Z,6.85
2023-04-19T21:13:24.701Z,6.50
2023-04-19T21:15:52.741Z,6.39
2023-04-19T21:18:21.054Z,6.48
2023-04-19T21:20:49.161Z,6.22
2023-04-19T21:23:18.497Z,6.19
2023-04-19T21:25:47.651Z,6.30
2023-04-19T21:28:15.986Z,6.50
2023-04-19T21:30:45.294Z,6.47
2023-04-19T21:33:18.138Z,6.40
2023-04-19T21:35:46.335Z,6.17
2023-04-19T21:38:19.338Z,6.19
2023-04-19T21:44:55.934Z,6.29
2023-04-19T21:47:39.799Z,6.40
2023-04-19T21:50:09.232Z,6.58
2023-04-19T21:53:06.348Z,6.37
2023-04-19T21:55:42.669Z,6.47
2023-04-19T21:58:10.708Z,6.34
2023-04-19T22:00:46.254Z,6.36
2023-04-19T22:03:14.204Z,6.22
2023-04-19T22:05:42.369Z,6.09
2023-04-19T22:08:12.680Z,6.17
2023-04-19T22:10:44.819Z,6.09
2023-04-19T22:13:14.153Z,6.11
2023-04-19T22:15:43.453Z,6.13
2023-04-19T22:18:11.735Z,6.16
2023-04-19T22:20:39.898Z,6.10
2023-04-19T22:23:08.176Z,5.94
2023-04-19T22:25:36.224Z,6.06
2023-04-19T22:28:07.526Z,6.09
2023-04-19T22:30:36.180Z,6.10
2023-04-19T22:33:04.281Z,6.03
2023-04-19T22:35:32.345Z,5.89
2023-04-19T22:38:01.254Z,5.86
2023-04-19T22:40:31.867Z,5.83
2023-04-19T22:43:01.276Z,5.71
2023-04-19T22:45:31.167Z,5.61
2023-04-19T22:47:59.959Z,5.53
2023-04-19T22:50:28.493Z,5.67
2023-04-19T22:52:56.704Z,5.65
2023-04-19T22:55:24.906Z,5.73
2023-04-19T22:57:54.092Z,5.75
2023-04-19T23:00:26.528Z,5.72
2023-04-19T23:02:58.419Z,5.76
2023-04-19T23:05:27.285Z,5.87
2023-04-19T23:07:59.652Z,6.09
2023-04-19T23:10:28.717Z,6.11
2023-04-19T23:12:57.350Z,6.15
2023-04-19T23:15:26.277Z,6.33
2023-04-19T23:17:55.496Z,6.33
2023-04-19T23:20:25.298Z,6.31
2023-04-19T23:22:53.253Z,6.46
2023-04-19T23:25:21.916Z,6.59
2023-04-19T23:27:51.349Z,6.58
2023-04-19T23:30:20.067Z,6.64
2023-04-19T23:32:48.138Z,6.65
2023-04-19T23:35:17.729Z,6.77
2023-04-19T23:37:45.665Z,6.81
2023-04-19T23:40:16.345Z,6.71
2023-04-19T23:42:44.200Z,6.86
2023-04-19T23:45:12.178Z,7.01
2023-04-19T23:47:40.559Z,6.96
2023-04-19T23:50:09.645Z,6.91
2023-04-19T23:52:39.042Z,7.12
2023-04-19T23:55:07.948Z,7.21
2023-04-19T23:57:36.019Z,7.25
